Time;durP1;ratioP1;P1;durP2;ratioP2;P2;SDS_P1;SDS_P2;PMS_P1;PMS_P2;Temp;Humidity;BMP_temperature;BMP_pressure;BME280_temperature;BME280_humidity;BME280_pressure;Samples;Min_cycle;Max_cycle;Signal;HPM_P1;HPM_P2
2023/02/09 00:01:56;;;;;;;;;;;2.80;67.70;;;;;;4958987;28;19950;-36
2023/02/09 00:04:21;;;;;;;;;;;2.80;67.60;;;;;;4958899;29;19910;-36
2023/02/09 00:06:47;;;;;;;;;;;2.80;67.70;;;;;;4958737;29;20334;-38
2023/02/09 00:09:12;;;;;;;;;;;2.80;67.60;;;;;;4959041;29;19915;-39
2023/02/09 00:14:22;;;;;;;;;;;2.80;67.60;;;;;;4959279;29;19921;-41
2023/02/09 00:16:48;;;;;;;;;;;2.80;67.60;;;;;;4958955;28;20345;-36
2023/02/09 00:19:13;;;;;;;;;;;2.70;67.60;;;;;;4959008;28;19956;-36
2023/02/09 00:21:39;;;;;;;;;;;2.70;67.60;;;;;;4958802;29;19950;-36
2023/02/09 00:24:05;;;;;;;;;;;2.60;67.60;;;;;;4959068;28;20366;-35
2023/02/09 00:26:30;;;;;;;;;;;2.60;67.60;;;;;;4958840;28;19962;-37
2023/02/09 00:28:56;;;;;;;;;;;2.60;67.60;;;;;;4958943;28;20370;-36
2023/02/09 00:31:21;;;;;;;;;;;2.60;67.60;;;;;;4958766;28;19917;-33
2023/02/09 00:33:47;;;;;;;;;;;2.60;67.60;;;;;;4958886;28;19911;-36
2023/02/09 00:36:13;;;;;;;;;;;2.60;67.60;;;;;;4958575;29;20013;-33
2023/02/09 00:38:38;;;;;;;;;;;2.60;67.60;;;;;;4958574;28;19985;-36
2023/02/09 00:41:04;;;;;;;;;;;2.50;67.60;;;;;;4958642;28;19918;-36
2023/02/09 00:43:30;;;;;;;;;;;2.50;67.60;;;;;;4958648;28;20445;-36
2023/02/09 00:45:55;;;;;;;;;;;2.50;67.70;;;;;;4955094;28;20417;-36
2023/02/09 00:48:21;;;;;;;;;;;2.50;67.70;;;;;;4955503;29;20410;-37
2023/02/09 00:50:48;;;;;;;;;;;2.50;67.80;;;;;;4938204;29;19965;-37
2023/02/09 00:53:14;;;;;;;;;;;2.40;67.70;;;;;;4955646;29;19934;-33
2023/02/09 00:55:39;;;;;;;;;;;2.40;67.80;;;;;;4955424;29;19911;-36
2023/02/09 00:58:04;;;;;;;;;;;2.40;67.80;;;;;;4955310;29;19911;-33
2023/02/09 01:00:30;;;;;;;;;;;2.40;67.90;;;;;;4955596;29;19941;-36
2023/02/09 01:02:56;;;;;;;;;;;2.40;67.90;;;;;;4955295;29;19954;-34
2023/02/09 01:05:21;;;;;;;;;;;2.30;67.90;;;;;;4955415;29;19950;-35
2023/02/09 01:07:46;;;;;;;;;;;2.30;68.00;;;;;;4955190;29;19988;-35
2023/02/09 01:10:12;;;;;;;;;;;2.30;68.00;;;;;;4955144;29;19915;-34
2023/02/09 01:12:41;;;;;;;;;;;2.30;68.00;;;;;;4955111;29;19930;-35
2023/02/09 01:15:07;;;;;;;;;;;2.30;68.00;;;;;;4955033;29;19934;-35
2023/02/09 01:17:33;;;;;;;;;;;2.20;68.10;;;;;;4955298;29;19958;-32
2023/02/09 01:19:58;;;;;;;;;;;2.20;68.10;;;;;;4955115;29;20354;-35
2023/02/09 01:22:24;;;;;;;;;;;2.20;68.10;;;;;;4955296;29;20353;-33
2023/02/09 01:24:50;;;;;;;;;;;2.20;68.10;;;;;;4954981;29;19941;-38
2023/02/09 01:27:15;;;;;;;;;;;2.20;68.10;;;;;;4955010;29;19911;-34
2023/02/09 01:29:41;;;;;;;;;;;2.10;68.10;;;;;;4954657;29;19926;-35
2023/02/09 01:32:06;;;;;;;;;;;2.10;68.20;;;;;;4954710;29;19928;-33
2023/02/09 01:34:32;;;;;;;;;;;2.10;68.20;;;;;;4955049;29;20247;-35
2023/02/09 01:36:57;;;;;;;;;;;2.10;68.20;;;;;;4954593;29;20347;-33
2023/02/09 01:39:23;;;;;;;;;;;2.10;68.20;;;;;;4955037;29;19922;-35
2023/02/09 01:41:48;;;;;;;;;;;2.00;68.20;;;;;;4954456;29;19960;-35
2023/02/09 01:44:14;;;;;;;;;;;2.00;68.20;;;;;;4954599;29;19932;-34
2023/02/09 01:46:39;;;;;;;;;;;2.00;68.20;;;;;;4954343;29;19910;-35
2023/02/09 01:49:31;;;;;;;;;;;2.00;68.20;;;;;;4954428;29;19914;-34
2023/02/09 01:51:56;;;;;;;;;;;2.00;68.30;;;;;;4917360;29;19962;-33
2023/02/09 01:54:24;;;;;;;;;;;1.90;68.20;;;;;;4954557;29;19911;-35
2023/02/09 01:56:53;;;;;;;;;;;1.90;68.30;;;;;;4954171;28;19917;-35
2023/02/09 01:59:19;;;;;;;;;;;1.80;68.30;;;;;;4954390;29;19911;-35
2023/02/09 02:01:45;;;;;;;;;;;1.80;68.40;;;;;;4954185;29;19964;-34
2023/02/09 02:04:10;;;;;;;;;;;1.70;68.50;;;;;;4954138;29;19994;-35
2023/02/09 02:06:36;;;;;;;;;;;1.70;68.60;;;;;;4953904;29;19914;-35
2023/02/09 02:09:04;;;;;;;;;;;1.70;68.60;;;;;;4954163;29;19922;-35
2023/02/09 02:11:31;;;;;;;;;;;1.70;68.70;;;;;;4953844;29;19926;-35
2023/02/09 02:13:58;;;;;;;;;;;1.70;68.70;;;;;;4935848;29;20486;-35
2023/02/09 02:16:27;;;;;;;;;;;1.70;68.70;;;;;;4953585;29;20333;-35
2023/02/09 02:19:16;;;;;;;;;;;1.70;68.80;;;;;;4953689;29;20294;-33
2023/02/09 02:21:45;;;;;;;;;;;1.70;68.80;;;;;;4953402;29;19985;-35
2023/02/09 02:24:38;;;;;;;;;;;1.70;68.80;;;;;;4953569;29;19910;-35
2023/02/09 02:27:07;;;;;;;;;;;1.60;68.80;;;;;;4953533;29;20061;-34
2023/02/09 02:29:50;;;;;;;;;;;1.70;68.80;;;;;;4953341;29;19958;-35
2023/02/09 02:32:16;;;;;;;;;;;1.70;68.80;;;;;;4953482;29;19921;-35
2023/02/09 02:34:49;;;;;;;;;;;1.60;68.80;;;;;;4953175;29;19911;-35
2023/02/09 02:37:44;;;;;;;;;;;1.60;68.90;;;;;;4953184;29;19911;-31
2023/02/09 02:40:27;;;;;;;;;;;1.50;68.90;;;;;;4932126;29;19933;-34
2023/02/09 02:42:56;;;;;;;;;;;1.50;69.00;;;;;;4953170;29;19911;-37
2023/02/09 02:45:25;;;;;;;;;;;1.50;69.10;;;;;;4953173;29;19911;-35
2023/02/09 02:47:56;;;;;;;;;;;1.50;69.20;;;;;;4935753;29;20034;-35
2023/02/09 02:50:23;;;;;;;;;;;1.50;69.20;;;;;;4952814;29;19941;-35
2023/02/09 02:52:50;;;;;;;;;;;1.50;69.20;;;;;;4952802;29;20001;-35
2023/02/09 02:55:17;;;;;;;;;;;1.50;69.20;;;;;;4953157;29;19911;-35
2023/02/09 02:57:44;;;;;;;;;;;1.50;69.20;;;;;;4953157;29;20298;-35
2023/02/09 03:00:21;;;;;;;;;;;1.40;69.20;;;;;;4952937;29;19911;-35
2023/02/09 03:02:49;;;;;;;;;;;1.50;69.20;;;;;;4952935;29;19921;-35
2023/02/09 03:05:15;;;;;;;;;;;1.40;69.10;;;;;;4935413;29;19937;-34
2023/02/09 03:07:41;;;;;;;;;;;1.50;69.20;;;;;;4935007;29;19934;-35
2023/02/09 03:10:23;;;;;;;;;;;1.40;69.10;;;;;;4935003;29;19965;-35
2023/02/09 03:12:54;;;;;;;;;;;1.40;69.20;;;;;;4952634;29;19923;-35
2023/02/09 03:15:51;;;;;;;;;;;1.40;69.20;;;;;;4952839;29;20373;-35
2023/02/09 03:18:20;;;;;;;;;;;1.40;69.20;;;;;;4899718;29;19993;-35
2023/02/09 03:20:49;;;;;;;;;;;1.40;69.30;;;;;;4952657;29;19915;-34
2023/02/09 03:23:33;;;;;;;;;;;1.40;69.20;;;;;;4952575;29;19915;-35
2023/02/09 03:26:02;;;;;;;;;;;1.40;69.20;;;;;;4952595;29;20425;-34
2023/02/09 03:28:30;;;;;;;;;;;1.50;69.10;;;;;;4952245;29;19925;-33
2023/02/09 03:30:57;;;;;;;;;;;1.50;69.00;;;;;;4952590;29;19930;-34
2023/02/09 03:33:24;;;;;;;;;;;1.50;68.90;;;;;;4952431;29;19953;-35
2023/02/09 03:35:52;;;;;;;;;;;1.50;68.80;;;;;;4952267;29;19915;-35
2023/02/09 03:38:17;;;;;;;;;;;1.60;68.80;;;;;;4952002;29;19921;-33
2023/02/09 03:40:43;;;;;;;;;;;1.60;68.60;;;;;;4952202;29;20005;-36
2023/02/09 03:43:10;;;;;;;;;;;1.60;68.60;;;;;;4952058;29;19966;-32
2023/02/09 03:45:36;;;;;;;;;;;1.60;69.20;;;;;;4952217;29;20343;-34
2023/02/09 03:48:03;;;;;;;;;;;1.60;68.60;;;;;;4952301;29;19934;-36
2023/02/09 03:50:29;;;;;;;;;;;1.60;68.50;;;;;;4952065;29;19968;-35
2023/02/09 03:52:55;;;;;;;;;;;1.60;68.40;;;;;;4952214;29;20010;-34
2023/02/09 03:55:20;;;;;;;;;;;1.60;68.40;;;;;;4951984;29;20471;-35
2023/02/09 03:57:46;;;;;;;;;;;1.60;68.40;;;;;;4951904;29;19919;-34
2023/02/09 04:00:11;;;;;;;;;;;1.60;68.40;;;;;;4951801;29;20382;-35
2023/02/09 04:02:37;;;;;;;;;;;1.60;68.40;;;;;;4951839;29;20009;-35
2023/02/09 04:05:03;;;;;;;;;;;1.60;68.30;;;;;;4952088;29;19922;-35
2023/02/09 04:07:28;;;;;;;;;;;1.60;68.30;;;;;;4952112;29;19941;-34
2023/02/09 04:09:54;;;;;;;;;;;1.60;68.20;;;;;;4951915;29;20017;-34
2023/02/09 04:12:19;;;;;;;;;;;1.60;68.20;;;;;;4951775;29;19922;-34
2023/02/09 04:14:45;;;;;;;;;;;1.60;68.20;;;;;;4952039;29;20438;-32
2023/02/09 04:17:10;;;;;;;;;;;1.60;68.20;;;;;;4951931;29;20000;-35
2023/02/09 04:19:36;;;;;;;;;;;1.60;68.20;;;;;;4952380;28;20374;-35
2023/02/09 04:22:01;;;;;;;;;;;1.60;68.20;;;;;;4955696;29;20019;-35
2023/02/09 04:24:27;;;;;;;;;;;1.60;68.10;;;;;;4956119;29;19941;-32
2023/02/09 04:26:52;;;;;;;;;;;1.70;68.10;;;;;;4938864;29;20362;-35
2023/02/09 04:29:18;;;;;;;;;;;1.60;68.00;;;;;;4956128;29;19954;-33
2023/02/09 04:31:43;;;;;;;;;;;1.60;68.00;;;;;;4956185;29;19968;-36
2023/02/09 04:34:09;;;;;;;;;;;1.70;68.00;;;;;;4956046;29;20359;-35
2023/02/09 04:36:34;;;;;;;;;;;1.70;68.00;;;;;;4956190;29;19981;-33
2023/02/09 04:39:00;;;;;;;;;;;1.70;67.90;;;;;;4956223;29;20347;-35
2023/02/09 04:41:25;;;;;;;;;;;1.70;68.00;;;;;;4956061;29;20445;-35
2023/02/09 04:43:51;;;;;;;;;;;1.70;67.90;;;;;;4956095;29;19915;-35
2023/02/09 04:46:17;;;;;;;;;;;1.70;67.90;;;;;;4955813;29;19918;-35
2023/02/09 04:48:43;;;;;;;;;;;1.70;67.90;;;;;;4956023;29;20447;-35
2023/02/09 04:51:08;;;;;;;;;;;1.70;67.80;;;;;;4956025;29;19927;-34
2023/02/09 04:53:34;;;;;;;;;;;1.70;67.80;;;;;;4955903;29;19914;-34
2023/02/09 04:56:00;;;;;;;;;;;1.60;67.70;;;;;;4955826;29;19914;-35
2023/02/09 05:01:11;;;;;;;;;;;1.60;67.70;;;;;;4955616;29;19965;-32
2023/02/09 05:03:36;;;;;;;;;;;1.60;67.80;;;;;;4955137;29;19918;-33
2023/02/09 05:06:04;;;;;;;;;;;1.60;67.80;;;;;;4938326;29;19970;-35
2023/02/09 05:08:29;;;;;;;;;;;1.60;67.70;;;;;;4955850;29;19915;-35
2023/02/09 05:10:55;;;;;;;;;;;1.60;67.70;;;;;;4955446;29;20385;-35
2023/02/09 05:13:21;;;;;;;;;;;1.60;67.70;;;;;;4955596;29;19914;-35
2023/02/09 05:15:47;;;;;;;;;;;1.60;67.70;;;;;;4955496;29;20013;-35
2023/02/09 05:18:12;;;;;;;;;;;1.60;67.70;;;;;;4955559;29;20322;-35
2023/02/09 05:20:38;;;;;;;;;;;1.60;67.70;;;;;;4955331;29;20302;-35
2023/02/09 05:23:04;;;;;;;;;;;1.60;67.60;;;;;;4955490;29;20324;-35
2023/02/09 05:25:29;;;;;;;;;;;1.70;67.70;;;;;;4937946;29;20354;-35
2023/02/09 05:27:55;;;;;;;;;;;1.60;67.60;;;;;;4955311;29;19915;-35
2023/02/09 05:30:21;;;;;;;;;;;1.60;67.60;;;;;;4955477;28;19922;-35
2023/02/09 05:32:46;;;;;;;;;;;1.70;67.60;;;;;;4955100;29;19919;-35
2023/02/09 05:35:12;;;;;;;;;;;1.70;67.50;;;;;;4955341;29;20025;-35
2023/02/09 05:37:37;;;;;;;;;;;1.70;67.50;;;;;;4955527;29;19915;-35
2023/02/09 05:40:03;;;;;;;;;;;1.70;67.40;;;;;;4955178;29;19970;-35
2023/02/09 05:42:29;;;;;;;;;;;1.60;67.30;;;;;;4954682;29;20009;-32
2023/02/09 05:44:54;;;;;;;;;;;1.60;67.40;;;;;;4954434;29;19983;-36
2023/02/09 05:47:21;;;;;;;;;;;1.70;67.40;;;;;;4954232;29;19914;-32
2023/02/09 05:49:46;;;;;;;;;;;1.70;67.40;;;;;;4954141;29;20013;-35
2023/02/09 05:52:12;;;;;;;;;;;1.60;67.30;;;;;;4954283;29;20020;-36
2023/02/09 05:54:38;;;;;;;;;;;1.70;67.30;;;;;;4954322;29;20025;-33
2023/02/09 05:57:04;;;;;;;;;;;1.70;67.30;;;;;;4954319;29;20013;-36
2023/02/09 05:59:29;;;;;;;;;;;1.70;67.30;;;;;;4954210;29;20005;-35
2023/02/09 06:01:55;;;;;;;;;;;1.70;67.30;;;;;;4954187;29;20408;-35
2023/02/09 06:04:21;;;;;;;;;;;1.70;67.30;;;;;;4954481;29;20017;-35
2023/02/09 06:06:47;;;;;;;;;;;1.60;67.30;;;;;;4954001;29;19925;-34
2023/02/09 06:09:12;;;;;;;;;;;1.60;67.30;;;;;;4953981;29;19919;-35
2023/02/09 06:11:38;;;;;;;;;;;1.60;67.30;;;;;;4936591;29;19923;-35
2023/02/09 06:14:03;;;;;;;;;;;1.60;67.40;;;;;;4953838;29;19915;-35
2023/02/09 06:16:29;;;;;;;;;;;1.60;67.40;;;;;;4954215;29;19940;-35
2023/02/09 06:18:54;;;;;;;;;;;1.60;67.50;;;;;;4954154;29;20457;-36
2023/02/09 06:21:20;;;;;;;;;;;1.60;67.40;;;;;;4953907;29;20008;-38
2023/02/09 06:23:45;;;;;;;;;;;1.60;67.50;;;;;;4953884;29;19914;-34
2023/02/09 06:26:12;;;;;;;;;;;1.60;67.50;;;;;;4953750;29;20017;-35
2023/02/09 06:28:38;;;;;;;;;;;1.60;67.50;;;;;;4953819;29;20008;-35
2023/02/09 06:31:04;;;;;;;;;;;1.60;67.50;;;;;;4953811;29;19922;-35
2023/02/09 06:33:30;;;;;;;;;;;1.60;67.50;;;;;;4953819;29;20435;-35
2023/02/09 06:35:55;;;;;;;;;;;1.60;67.50;;;;;;4953566;29;20035;-35
2023/02/09 06:38:21;;;;;;;;;;;1.60;67.50;;;;;;4953722;29;19914;-35
2023/02/09 06:40:46;;;;;;;;;;;1.60;67.50;;;;;;4953594;29;19973;-35
2023/02/09 06:43:12;;;;;;;;;;;1.60;67.40;;;;;;4953014;28;19914;-36
2023/02/09 06:45:38;;;;;;;;;;;1.60;67.40;;;;;;4953528;29;20001;-35
2023/02/09 06:48:04;;;;;;;;;;;1.70;67.50;;;;;;4953452;29;19937;-35
2023/02/09 06:50:30;;;;;;;;;;;1.70;67.50;;;;;;4936018;29;20005;-35
2023/02/09 06:52:56;;;;;;;;;;;1.60;67.40;;;;;;4953212;29;19954;-35
2023/02/09 06:55:21;;;;;;;;;;;1.60;67.30;;;;;;4953271;29;19919;-40
2023/02/09 06:57:47;;;;;;;;;;;1.60;67.20;;;;;;4953083;29;19914;-35
2023/02/09 07:00:13;;;;;;;;;;;1.60;67.10;;;;;;4953138;29;20366;-35
2023/02/09 07:02:40;;;;;;;;;;;1.60;67.10;;;;;;4953231;29;19974;-31
2023/02/09 07:05:05;;;;;;;;;;;1.60;67.10;;;;;;4953187;29;19951;-34
2023/02/09 07:07:31;;;;;;;;;;;1.60;67.00;;;;;;4952967;29;20024;-35
2023/02/09 07:09:56;;;;;;;;;;;1.50;66.90;;;;;;4953058;29;20021;-33
2023/02/09 07:12:22;;;;;;;;;;;1.50;66.80;;;;;;4952974;29;19994;-35
2023/02/09 07:14:47;;;;;;;;;;;1.50;66.80;;;;;;4953034;29;20441;-35
2023/02/09 07:17:13;;;;;;;;;;;1.50;66.90;;;;;;4953218;29;19994;-35
2023/02/09 07:19:38;;;;;;;;;;;1.50;66.90;;;;;;4952902;29;20389;-35
2023/02/09 07:22:04;;;;;;;;;;;1.50;66.80;;;;;;4952976;29;19962;-36
2023/02/09 07:24:29;;;;;;;;;;;1.50;66.70;;;;;;4935515;29;19915;-35
2023/02/09 07:26:55;;;;;;;;;;;1.50;66.70;;;;;;4952332;29;19962;-35
2023/02/09 07:29:20;;;;;;;;;;;1.60;66.60;;;;;;4952400;29;20017;-35
2023/02/09 07:31:46;;;;;;;;;;;1.60;66.70;;;;;;4952477;29;20358;-34
2023/02/09 07:34:11;;;;;;;;;;;1.60;66.80;;;;;;4935220;29;19914;-33
2023/02/09 07:36:37;;;;;;;;;;;1.60;66.70;;;;;;4952598;29;20278;-32
2023/02/09 07:39:02;;;;;;;;;;;1.60;66.70;;;;;;4952697;29;19933;-34
2023/02/09 07:41:28;;;;;;;;;;;1.60;66.70;;;;;;4952702;29;19915;-33
2023/02/09 07:43:54;;;;;;;;;;;1.60;66.70;;;;;;4952865;29;20359;-35
2023/02/09 07:46:20;;;;;;;;;;;1.60;66.70;;;;;;4952467;29;20275;-32
2023/02/09 07:48:46;;;;;;;;;;;1.70;66.70;;;;;;4952565;29;19921;-35
2023/02/09 07:51:15;;;;;;;;;;;1.70;66.70;;;;;;4953099;29;19918;-34
2023/02/09 07:53:41;;;;;;;;;;;1.70;66.60;;;;;;4952749;28;19922;-33
2023/02/09 07:56:07;;;;;;;;;;;1.80;66.60;;;;;;4956698;29;20394;-34
2023/02/09 07:58:32;;;;;;;;;;;1.80;66.50;;;;;;4956475;29;20104;-35
2023/02/09 08:01:08;;;;;;;;;;;1.80;66.50;;;;;;4956161;29;19922;-34
2023/02/09 08:03:34;;;;;;;;;;;1.80;66.50;;;;;;4956706;29;20028;-35
2023/02/09 08:06:07;;;;;;;;;;;1.90;66.50;;;;;;4956614;29;20275;-34
2023/02/09 08:08:32;;;;;;;;;;;1.90;66.40;;;;;;4955959;29;19914;-35
2023/02/09 08:10:59;;;;;;;;;;;1.90;66.30;;;;;;4955851;29;20286;-34
2023/02/09 08:13:27;;;;;;;;;;;1.90;66.20;;;;;;4956553;29;19914;-35
2023/02/09 08:15:56;;;;;;;;;;;1.90;66.20;;;;;;4956235;29;19915;-35
2023/02/09 08:18:31;;;;;;;;;;;2.00;66.10;;;;;;4955883;29;19951;-35
2023/02/09 08:20:57;;;;;;;;;;;2.00;66.10;;;;;;4955922;29;20018;-34
2023/02/09 08:23:25;;;;;;;;;;;2.00;66.00;;;;;;4956040;29;20021;-35
2023/02/09 08:25:51;;;;;;;;;;;2.10;66.00;;;;;;4955998;29;19915;-35
2023/02/09 08:28:20;;;;;;;;;;;2.10;66.00;;;;;;4956149;29;20236;-35
2023/02/09 08:30:47;;;;;;;;;;;2.20;66.00;;;;;;4955815;29;19918;-35
2023/02/09 08:33:12;;;;;;;;;;;2.20;66.00;;;;;;4956109;29;20017;-34
2023/02/09 08:35:38;;;;;;;;;;;2.20;65.90;;;;;;4955617;29;19997;-35
2023/02/09 08:38:03;;;;;;;;;;;2.30;65.90;;;;;;4955703;29;19914;-34
2023/02/09 08:40:29;;;;;;;;;;;2.30;65.80;;;;;;4955836;29;20261;-34
2023/02/09 08:42:55;;;;;;;;;;;2.40;65.80;;;;;;4955615;29;20271;-35
2023/02/09 08:45:21;;;;;;;;;;;2.40;65.80;;;;;;4938278;29;19919;-35
2023/02/09 08:47:46;;;;;;;;;;;2.50;65.80;;;;;;4955466;29;19974;-35
2023/02/09 08:50:12;;;;;;;;;;;2.60;65.70;;;;;;4955433;29;19990;-32
2023/02/09 08:52:37;;;;;;;;;;;2.60;65.60;;;;;;4955864;29;20425;-35
2023/02/09 08:55:03;;;;;;;;;;;2.70;65.50;;;;;;4955473;29;20290;-35
2023/02/09 08:57:29;;;;;;;;;;;2.70;65.40;;;;;;4955238;29;20269;-34
2023/02/09 08:59:54;;;;;;;;;;;2.80;65.40;;;;;;4955294;29;19915;-36
2023/02/09 09:02:20;;;;;;;;;;;2.90;65.40;;;;;;4955301;29;20370;-34
2023/02/09 09:04:46;;;;;;;;;;;2.90;65.30;;;;;;4955314;29;20433;-35
2023/02/09 09:07:11;;;;;;;;;;;3.00;65.10;;;;;;4954411;28;19938;-35
2023/02/09 09:09:36;;;;;;;;;;;3.10;65.10;;;;;;4955349;29;19922;-35
2023/02/09 09:12:02;;;;;;;;;;;3.10;65.60;;;;;;4954907;29;20327;-34
2023/02/09 09:14:28;;;;;;;;;;;3.10;64.90;;;;;;4955353;29;20010;-35
2023/02/09 09:16:55;;;;;;;;;;;3.10;65.60;;;;;;4954950;29;20283;-35
2023/02/09 09:19:21;;;;;;;;;;;3.20;65.00;;;;;;4955158;29;19918;-36
2023/02/09 09:21:46;;;;;;;;;;;3.20;65.00;;;;;;4955267;29;19926;-35
2023/02/09 09:24:12;;;;;;;;;;;3.10;64.50;;;;;;4955308;29;20309;-32
2023/02/09 09:26:38;;;;;;;;;;;3.10;64.50;;;;;;4954905;29;19962;-35
2023/02/09 09:29:03;;;;;;;;;;;3.10;64.60;;;;;;4954649;29;19969;-35
2023/02/09 09:31:29;;;;;;;;;;;3.10;65.30;;;;;;4954828;29;20006;-35
2023/02/09 09:33:55;;;;;;;;;;;3.20;64.80;;;;;;4954926;29;19915;-35
2023/02/09 09:36:20;;;;;;;;;;;3.20;64.70;;;;;;4954688;29;19915;-35
2023/02/09 09:38:46;;;;;;;;;;;3.20;65.20;;;;;;4954923;29;19925;-35
2023/02/09 09:41:21;;;;;;;;;;;3.20;64.50;;;;;;4954622;29;19962;-34
2023/02/09 09:43:47;;;;;;;;;;;3.30;64.10;;;;;;4954750;29;19918;-45
2023/02/09 09:46:15;;;;;;;;;;;3.30;64.10;;;;;;4954613;29;20406;-36
2023/02/09 09:48:49;;;;;;;;;;;3.30;64.20;;;;;;4954808;29;19914;-33
2023/02/09 09:51:19;;;;;;;;;;;3.30;64.30;;;;;;4954904;29;19918;-36
2023/02/09 09:53:48;;;;;;;;;;;3.30;64.00;;;;;;4954614;29;20297;-36
2023/02/09 09:56:14;;;;;;;;;;;3.40;64.20;;;;;;4954233;29;19915;-36
2023/02/09 09:58:41;;;;;;;;;;;3.40;64.10;;;;;;4954703;29;20016;-34
2023/02/09 10:01:14;;;;;;;;;;;3.50;64.20;;;;;;4936914;29;19919;-36
2023/02/09 10:03:39;;;;;;;;;;;3.50;64.00;;;;;;4954418;29;20053;-36
2023/02/09 10:06:13;;;;;;;;;;;3.50;63.80;;;;;;4954528;29;19922;-36
2023/02/09 10:08:56;;;;;;;;;;;3.50;63.80;;;;;;4954424;29;19914;-36
2023/02/09 10:11:24;;;;;;;;;;;3.50;63.80;;;;;;4954029;29;19944;-36
2023/02/09 10:13:51;;;;;;;;;;;3.60;63.90;;;;;;4954328;29;19918;-35
2023/02/09 10:16:27;;;;;;;;;;;3.60;63.80;;;;;;4954042;29;20097;-36
2023/02/09 10:18:54;;;;;;;;;;;3.70;63.90;;;;;;4954022;28;19926;-33
2023/02/09 10:21:21;;;;;;;;;;;3.70;63.70;;;;;;4953957;29;19922;-32
2023/02/09 10:23:48;;;;;;;;;;;3.80;63.60;;;;;;4953721;29;19961;-36
2023/02/09 10:26:16;;;;;;;;;;;3.80;63.50;;;;;;4953858;29;20013;-35
2023/02/09 10:28:46;;;;;;;;;;;3.90;63.20;;;;;;4954192;29;20367;-33
2023/02/09 10:31:18;;;;;;;;;;;4.00;63.40;;;;;;4936432;29;20001;-35
2023/02/09 10:33:44;;;;;;;;;;;4.10;63.40;;;;;;4953757;29;19970;-34
2023/02/09 10:36:22;;;;;;;;;;;4.10;63.10;;;;;;4954061;29;19922;-36
2023/02/09 10:38:48;;;;;;;;;;;4.30;63.20;;;;;;4953737;29;19985;-36
2023/02/09 10:41:14;;;;;;;;;;;4.40;63.20;;;;;;4953625;29;19915;-35
2023/02/09 10:43:40;;;;;;;;;;;4.50;62.90;;;;;;4953677;29;19953;-35
2023/02/09 10:46:15;;;;;;;;;;;4.50;62.20;;;;;;4953588;29;19953;-36
2023/02/09 10:48:42;;;;;;;;;;;4.60;62.40;;;;;;4953630;29;19960;-35
2023/02/09 10:51:12;;;;;;;;;;;4.60;62.10;;;;;;4953431;29;20013;-36
2023/02/09 10:53:40;;;;;;;;;;;4.70;62.10;;;;;;4953878;29;19946;-36
2023/02/09 10:56:06;;;;;;;;;;;4.80;61.90;;;;;;4953547;29;19969;-35
2023/02/09 10:58:33;;;;;;;;;;;4.80;62.00;;;;;;4953555;29;19949;-33
2023/02/09 11:01:13;;;;;;;;;;;4.90;61.50;;;;;;4953492;29;19937;-36
2023/02/09 11:03:57;;;;;;;;;;;4.90;61.60;;;;;;4954009;29;19915;-35
2023/02/09 11:06:22;;;;;;;;;;;5.00;61.60;;;;;;4953676;29;19921;-35
2023/02/09 11:08:54;;;;;;;;;;;5.10;61.40;;;;;;4953213;29;20001;-35
2023/02/09 11:11:25;;;;;;;;;;;5.10;61.00;;;;;;4953225;29;19929;-32
2023/02/09 11:13:51;;;;;;;;;;;5.20;60.90;;;;;;4953491;29;19969;-34
2023/02/09 11:16:36;;;;;;;;;;;5.20;60.70;;;;;;4953608;29;20343;-40
2023/02/09 11:19:05;;;;;;;;;;;5.20;60.60;;;;;;4953229;29;19918;-35
2023/02/09 11:21:30;;;;;;;;;;;5.20;60.60;;;;;;4953178;29;19914;-35
2023/02/09 11:24:02;;;;;;;;;;;5.20;60.70;;;;;;4953370;29;19942;-36
2023/02/09 11:26:36;;;;;;;;;;;5.30;60.80;;;;;;4953436;29;19942;-38
2023/02/09 11:29:08;;;;;;;;;;;5.30;60.40;;;;;;4952592;29;19966;-35
2023/02/09 11:31:43;;;;;;;;;;;5.20;60.20;;;;;;4953006;29;19914;-36
2023/02/09 11:34:18;;;;;;;;;;;5.20;60.50;;;;;;4935624;29;19981;-36
2023/02/09 11:36:50;;;;;;;;;;;5.20;60.50;;;;;;4953207;29;20250;-35
2023/02/09 11:39:20;;;;;;;;;;;5.20;60.60;;;;;;4952943;29;19919;-36
2023/02/09 11:44:40;;;;;;;;;;;5.10;61.20;;;;;;4953114;29;19916;-35
2023/02/09 11:47:06;;;;;;;;;;;5.20;61.40;;;;;;4952662;29;19938;-36
2023/02/09 11:49:40;;;;;;;;;;;5.20;61.50;;;;;;4952874;29;20354;-34
2023/02/09 11:52:07;;;;;;;;;;;5.20;61.00;;;;;;4953114;29;19934;-38
2023/02/09 11:54:34;;;;;;;;;;;5.20;61.50;;;;;;4952956;29;19993;-35
2023/02/09 11:57:01;;;;;;;;;;;5.20;61.60;;;;;;4935522;29;19910;-32
2023/02/09 11:59:36;;;;;;;;;;;5.20;61.60;;;;;;4952909;29;19915;-36
2023/02/09 12:02:20;;;;;;;;;;;5.30;61.60;;;;;;4952722;29;19910;-35
2023/02/09 12:04:57;;;;;;;;;;;5.30;61.70;;;;;;4952473;29;19918;-35
2023/02/09 12:07:41;;;;;;;;;;;5.40;61.70;;;;;;4952718;29;20358;-35
2023/02/09 12:10:15;;;;;;;;;;;5.40;61.60;;;;;;4952291;29;19918;-36
2023/02/09 12:12:43;;;;;;;;;;;5.50;61.80;;;;;;4952244;29;19923;-35
2023/02/09 12:15:16;;;;;;;;;;;5.50;61.80;;;;;;4952419;29;19957;-33
2023/02/09 12:17:45;;;;;;;;;;;5.60;62.50;;;;;;4952582;29;20288;-35
2023/02/09 12:20:21;;;;;;;;;;;5.60;61.80;;;;;;4952580;29;20093;-33
2023/02/09 12:23:03;;;;;;;;;;;5.60;61.80;;;;;;4952299;29;19990;-36
2023/02/09 12:25:47;;;;;;;;;;;5.70;61.80;;;;;;4952351;29;19918;-36
2023/02/09 12:28:17;;;;;;;;;;;5.70;62.00;;;;;;4952385;29;19950;-35
2023/02/09 12:30:42;;;;;;;;;;;5.80;62.00;;;;;;4952263;29;19915;-34
2023/02/09 12:33:17;;;;;;;;;;;5.80;62.00;;;;;;4952418;29;20445;-36
2023/02/09 12:35:56;;;;;;;;;;;5.90;62.10;;;;;;4952255;29;19910;-35
2023/02/09 12:38:21;;;;;;;;;;;5.90;62.20;;;;;;4952261;29;19910;-34
2023/02/09 12:41:02;;;;;;;;;;;6.00;62.20;;;;;;4952240;28;19911;-36
2023/02/09 12:43:29;;;;;;;;;;;6.00;62.10;;;;;;4955592;29;19917;-35
2023/02/09 12:46:13;;;;;;;;;;;6.10;62.00;;;;;;4955641;29;20389;-35
2023/02/09 12:48:47;;;;;;;;;;;6.00;62.80;;;;;;4955870;29;20331;-36
2023/02/09 12:51:31;;;;;;;;;;;6.00;62.40;;;;;;4955483;29;19919;-34
2023/02/09 12:53:56;;;;;;;;;;;6.10;62.50;;;;;;4955603;29;19910;-36
2023/02/09 12:56:27;;;;;;;;;;;6.10;62.60;;;;;;4955423;29;19917;-35
2023/02/09 12:58:53;;;;;;;;;;;6.10;62.60;;;;;;4955598;29;19911;-35
2023/02/09 13:01:18;;;;;;;;;;;6.10;62.70;;;;;;4955517;29;20343;-37
2023/02/09 13:03:55;;;;;;;;;;;6.10;62.80;;;;;;4955434;29;19915;-39
2023/02/09 13:06:39;;;;;;;;;;;6.10;63.00;;;;;;4955485;29;19917;-36
2023/02/09 13:09:07;;;;;;;;;;;6.20;63.00;;;;;;4955386;29;19910;-40
2023/02/09 13:11:44;;;;;;;;;;;6.20;62.90;;;;;;4955106;29;19935;-31
2023/02/09 13:14:13;;;;;;;;;;;6.20;63.00;;;;;;4955527;29;19917;-43
2023/02/09 13:16:59;;;;;;;;;;;6.30;63.20;;;;;;4955507;29;20004;-35
2023/02/09 13:19:42;;;;;;;;;;;6.30;63.30;;;;;;4906452;29;20001;-36
2023/02/09 13:22:28;;;;;;;;;;;6.30;63.30;;;;;;4955450;29;19910;-37
2023/02/09 13:25:07;;;;;;;;;;;6.30;63.30;;;;;;4955185;29;19914;-33
2023/02/09 13:27:41;;;;;;;;;;;6.30;63.40;;;;;;4955174;29;19941;-32
2023/02/09 13:30:12;;;;;;;;;;;6.30;63.50;;;;;;4955040;29;19944;-36
2023/02/09 13:32:48;;;;;;;;;;;6.40;63.50;;;;;;4954803;29;19918;-38
2023/02/09 13:35:19;;;;;;;;;;;6.40;63.40;;;;;;4955067;29;19918;-34
2023/02/09 13:37:51;;;;;;;;;;;6.50;63.50;;;;;;4955061;29;19954;-33
2023/02/09 13:40:21;;;;;;;;;;;6.50;63.40;;;;;;4954885;29;19922;-34
2023/02/09 13:43:09;;;;;;;;;;;6.60;63.60;;;;;;4954546;29;19978;-34
2023/02/09 13:45:34;;;;;;;;;;;6.60;63.50;;;;;;4953900;29;19933;-34
2023/02/09 13:48:03;;;;;;;;;;;6.60;63.60;;;;;;4954657;29;19910;-32
2023/02/09 13:50:29;;;;;;;;;;;6.60;63.60;;;;;;4954446;29;19921;-35
2023/02/09 13:53:06;;;;;;;;;;;6.60;63.70;;;;;;4954146;28;20409;-35
2023/02/09 13:55:31;;;;;;;;;;;6.60;63.80;;;;;;4954392;29;19919;-39
2023/02/09 13:58:01;;;;;;;;;;;6.60;64.00;;;;;;4954214;29;20474;-34
2023/02/09 14:00:33;;;;;;;;;;;6.60;64.00;;;;;;4954234;29;20393;-35
2023/02/09 14:03:01;;;;;;;;;;;6.60;64.10;;;;;;4954133;29;19965;-35
2023/02/09 14:05:33;;;;;;;;;;;6.60;64.20;;;;;;4954185;29;20203;-35
2023/02/09 14:07:58;;;;;;;;;;;6.60;64.40;;;;;;4954040;29;19911;-35
2023/02/09 14:10:25;;;;;;;;;;;6.60;64.40;;;;;;4953901;29;19918;-34
2023/02/09 14:12:58;;;;;;;;;;;6.60;64.60;;;;;;4954050;29;19914;-36
2023/02/09 14:18:20;;;;;;;;;;;6.70;64.80;;;;;;4953967;29;19990;-37
2023/02/09 14:20:57;;;;;;;;;;;6.70;64.80;;;;;;4953838;29;19942;-34
2023/02/09 14:23:22;;;;;;;;;;;6.80;64.90;;;;;;4953941;29;19934;-37
2023/02/09 14:26:00;;;;;;;;;;;6.70;65.00;;;;;;4953819;29;19911;-36
2023/02/09 14:28:25;;;;;;;;;;;6.70;65.10;;;;;;4953706;29;20049;-32
2023/02/09 14:30:51;;;;;;;;;;;6.70;65.20;;;;;;4953547;29;20064;-35
2023/02/09 14:33:23;;;;;;;;;;;6.70;65.20;;;;;;4953592;29;19961;-44
2023/02/09 14:35:53;;;;;;;;;;;6.70;65.30;;;;;;4953843;29;19910;-34
2023/02/09 14:38:51;;;;;;;;;;;6.70;65.40;;;;;;4953871;29;20001;-34
2023/02/09 14:41:26;;;;;;;;;;;6.80;65.50;;;;;;4900761;29;19915;-34
2023/02/09 14:43:59;;;;;;;;;;;6.70;65.50;;;;;;4953491;29;19985;-34
2023/02/09 14:46:25;;;;;;;;;;;6.70;65.60;;;;;;4953468;29;19956;-35
2023/02/09 14:48:54;;;;;;;;;;;6.70;65.80;;;;;;4953473;29;19941;-35
2023/02/09 14:51:19;;;;;;;;;;;6.70;65.80;;;;;;4953527;29;19921;-36